sensor_id;sensor_type;location;lat;lon;timestamp;P1;durP1;ratioP1;P2;durP2;ratioP2
20458;SDS011;10388;52.314;7.938;2024-01-06T00:01:47;8.50;;;6.20;;
20458;SDS011;10388;52.314;7.938;2024-01-06T00:04:18;11.87;;;6.70;;
20458;SDS011;10388;52.314;7.938;2024-01-06T00:06:48;10.43;;;7.13;;
20458;SDS011;10388;52.314;7.938;2024-01-06T00:09:19;10.10;;;6.17;;
20458;SDS011;10388;52.314;7.938;2024-01-06T00:11:49;9.83;;;6.23;;
20458;SDS011;10388;52.314;7.938;2024-01-06T00:14:20;10.90;;;6.13;;
20458;SDS011;10388;52.314;7.938;2024-01-06T00:16:50;9.90;;;6.67;;
20458;SDS011;10388;52.314;7.938;2024-01-06T00:19:21;8.53;;;5.93;;
20458;SDS011;10388;52.314;7.938;2024-01-06T00:21:51;9.47;;;6.43;;
20458;SDS011;10388;52.314;7.938;2024-01-06T00:24:22;9.87;;;6.40;;
20458;SDS011;10388;52.314;7.938;2024-01-06T00:26:52;10.50;;;6.40;;
20458;SDS011;10388;52.314;7.938;2024-01-06T00:29:23;9.93;;;6.93;;
20458;SDS011;10388;52.314;7.938;2024-01-06T00:31:53;9.33;;;6.57;;
20458;SDS011;10388;52.314;7.938;2024-01-06T00:34:24;10.27;;;7.23;;
20458;SDS011;10388;52.314;7.938;2024-01-06T00:36:54;9.57;;;7.13;;
20458;SDS011;10388;52.314;7.938;2024-01-06T00:39:25;9.57;;;6.67;;
20458;SDS011;10388;52.314;7.938;2024-01-06T00:41:55;8.80;;;6.60;;
20458;SDS011;10388;52.314;7.938;2024-01-06T00:44:26;6.27;;;5.13;;
20458;SDS011;10388;52.314;7.938;2024-01-06T00:46:56;7.03;;;5.10;;
20458;SDS011;10388;52.314;7.938;2024-01-06T00:49:27;7.30;;;5.27;;
20458;SDS011;10388;52.314;7.938;2024-01-06T00:51:57;7.73;;;5.40;;
20458;SDS011;10388;52.314;7.938;2024-01-06T00:54:28;6.60;;;4.70;;
20458;SDS011;10388;52.314;7.938;2024-01-06T00:56:59;8.00;;;4.80;;
20458;SDS011;10388;52.314;7.938;2024-01-06T00:59:29;6.17;;;4.93;;
20458;SDS011;10388;52.314;7.938;2024-01-06T01:02:00;5.17;;;4.60;;
20458;SDS011;10388;52.314;7.938;2024-01-06T01:04:30;6.87;;;4.87;;
20458;SDS011;10388;52.314;7.938;2024-01-06T01:07:01;5.40;;;4.43;;
20458;SDS011;10388;52.314;7.938;2024-01-06T01:09:31;6.43;;;4.50;;
20458;SDS011;10388;52.314;7.938;2024-01-06T01:12:02;4.50;;;4.07;;
20458;SDS011;10388;52.314;7.938;2024-01-06T01:14:32;5.10;;;4.20;;
20458;SDS011;10388;52.314;7.938;2024-01-06T01:17:03;5.10;;;4.27;;
20458;SDS011;10388;52.314;7.938;2024-01-06T01:19:34;4.90;;;3.90;;
20458;SDS011;10388;52.314;7.938;2024-01-06T01:22:04;5.10;;;3.73;;
20458;SDS011;10388;52.314;7.938;2024-01-06T01:24:35;4.53;;;3.40;;
20458;SDS011;10388;52.314;7.938;2024-01-06T01:27:05;4.33;;;3.73;;
20458;SDS011;10388;52.314;7.938;2024-01-06T01:29:36;5.73;;;4.60;;
20458;SDS011;10388;52.314;7.938;2024-01-06T01:32:06;5.57;;;4.20;;
20458;SDS011;10388;52.314;7.938;2024-01-06T01:34:37;6.47;;;5.27;;
20458;SDS011;10388;52.314;7.938;2024-01-06T01:37:07;5.43;;;4.53;;
20458;SDS011;10388;52.314;7.938;2024-01-06T01:39:38;5.87;;;4.60;;
20458;SDS011;10388;52.314;7.938;2024-01-06T01:42:09;9.43;;;5.73;;
20458;SDS011;10388;52.314;7.938;2024-01-06T01:47:10;7.70;;;5.50;;
20458;SDS011;10388;52.314;7.938;2024-01-06T01:49:42;7.17;;;5.60;;
20458;SDS011;10388;52.314;7.938;2024-01-06T01:52:27;8.13;;;5.30;;
20458;SDS011;10388;52.314;7.938;2024-01-06T01:55:08;6.73;;;5.13;;
20458;SDS011;10388;52.314;7.938;2024-01-06T01:58:00;7.10;;;5.07;;
20458;SDS011;10388;52.314;7.938;2024-01-06T02:03:27;7.03;;;5.13;;
20458;SDS011;10388;52.314;7.938;2024-01-06T02:06:08;7.13;;;5.77;;
20458;SDS011;10388;52.314;7.938;2024-01-06T02:08:51;6.70;;;5.47;;
20458;SDS011;10388;52.314;7.938;2024-01-06T02:11:26;7.27;;;5.60;;
20458;SDS011;10388;52.314;7.938;2024-01-06T02:14:02;7.67;;;6.30;;
20458;SDS011;10388;52.314;7.938;2024-01-06T02:16:36;6.80;;;5.20;;
20458;SDS011;10388;52.314;7.938;2024-01-06T02:19:07;8.37;;;6.40;;
20458;SDS011;10388;52.314;7.938;2024-01-06T02:21:49;9.03;;;6.57;;
20458;SDS011;10388;52.314;7.938;2024-01-06T02:24:33;9.47;;;7.03;;
20458;SDS011;10388;52.314;7.938;2024-01-06T02:27:10;7.30;;;5.60;;
20458;SDS011;10388;52.314;7.938;2024-01-06T02:29:50;8.77;;;5.93;;
20458;SDS011;10388;52.314;7.938;2024-01-06T02:32:31;7.10;;;5.20;;
20458;SDS011;10388;52.314;7.938;2024-01-06T02:35:10;8.10;;;5.63;;
20458;SDS011;10388;52.314;7.938;2024-01-06T02:37:41;7.73;;;5.53;;
20458;SDS011;10388;52.314;7.938;2024-01-06T02:40:12;6.53;;;5.20;;
20458;SDS011;10388;52.314;7.938;2024-01-06T02:43:15;8.80;;;6.17;;
20458;SDS011;10388;52.314;7.938;2024-01-06T02:45:46;6.50;;;5.07;;
20458;SDS011;10388;52.314;7.938;2024-01-06T02:48:21;8.97;;;6.33;;
20458;SDS011;10388;52.314;7.938;2024-01-06T02:50:52;7.00;;;5.50;;
20458;SDS011;10388;52.314;7.938;2024-01-06T02:53:23;9.27;;;6.50;;
20458;SDS011;10388;52.314;7.938;2024-01-06T02:55:56;10.60;;;7.37;;
20458;SDS011;10388;52.314;7.938;2024-01-06T02:58:27;12.93;;;8.80;;
20458;SDS011;10388;52.314;7.938;2024-01-06T03:01:00;12.50;;;8.17;;
20458;SDS011;10388;52.314;7.938;2024-01-06T03:03:36;12.63;;;8.37;;
20458;SDS011;10388;52.314;7.938;2024-01-06T03:09:44;12.10;;;7.73;;
20458;SDS011;10388;52.314;7.938;2024-01-06T03:12:40;11.27;;;8.17;;
20458;SDS011;10388;52.314;7.938;2024-01-06T03:15:29;9.83;;;6.40;;
20458;SDS011;10388;52.314;7.938;2024-01-06T03:24:35;7.63;;;5.60;;
20458;SDS011;10388;52.314;7.938;2024-01-06T03:27:10;7.30;;;5.53;;
20458;SDS011;10388;52.314;7.938;2024-01-06T03:29:41;7.80;;;5.17;;
20458;SDS011;10388;52.314;7.938;2024-01-06T03:32:11;7.00;;;4.97;;
20458;SDS011;10388;52.314;7.938;2024-01-06T03:37:23;6.40;;;4.90;;
20458;SDS011;10388;52.314;7.938;2024-01-06T03:39:57;6.33;;;4.83;;
20458;SDS011;10388;52.314;7.938;2024-01-06T03:43:01;7.17;;;4.70;;
20458;SDS011;10388;52.314;7.938;2024-01-06T03:45:31;8.57;;;5.23;;
20458;SDS011;10388;52.314;7.938;2024-01-06T03:48:20;7.73;;;4.80;;
20458;SDS011;10388;52.314;7.938;2024-01-06T03:51:17;8.87;;;5.40;;
20458;SDS011;10388;52.314;7.938;2024-01-06T03:53:53;6.90;;;5.00;;
20458;SDS011;10388;52.314;7.938;2024-01-06T03:56:45;8.53;;;5.57;;
20458;SDS011;10388;52.314;7.938;2024-01-06T03:59:15;9.83;;;6.03;;
20458;SDS011;10388;52.314;7.938;2024-01-06T04:01:46;8.93;;;6.53;;
20458;SDS011;10388;52.314;7.938;2024-01-06T04:04:17;8.70;;;6.30;;
20458;SDS011;10388;52.314;7.938;2024-01-06T04:06:48;9.37;;;6.30;;
20458;SDS011;10388;52.314;7.938;2024-01-06T04:09:19;9.63;;;6.33;;
20458;SDS011;10388;52.314;7.938;2024-01-06T04:11:58;9.03;;;5.97;;
20458;SDS011;10388;52.314;7.938;2024-01-06T04:14:34;9.70;;;6.23;;
20458;SDS011;10388;52.314;7.938;2024-01-06T04:17:07;9.53;;;6.97;;
20458;SDS011;10388;52.314;7.938;2024-01-06T04:19:43;9.53;;;6.50;;
20458;SDS011;10388;52.314;7.938;2024-01-06T04:22:41;10.40;;;6.67;;
20458;SDS011;10388;52.314;7.938;2024-01-06T04:25:22;10.17;;;6.33;;
20458;SDS011;10388;52.314;7.938;2024-01-06T04:28:35;8.37;;;5.83;;
20458;SDS011;10388;52.314;7.938;2024-01-06T04:31:27;8.57;;;5.73;;
20458;SDS011;10388;52.314;7.938;2024-01-06T04:34:49;7.40;;;5.83;;
20458;SDS011;10388;52.314;7.938;2024-01-06T04:37:23;7.63;;;5.27;;
20458;SDS011;10388;52.314;7.938;2024-01-06T04:40:28;7.30;;;5.10;;
20458;SDS011;10388;52.314;7.938;2024-01-06T04:43:17;6.60;;;4.83;;
20458;SDS011;10388;52.314;7.938;2024-01-06T04:46:16;8.10;;;5.20;;
20458;SDS011;10388;52.314;7.938;2024-01-06T04:49:21;7.27;;;4.97;;
20458;SDS011;10388;52.314;7.938;2024-01-06T04:51:54;8.53;;;5.30;;
20458;SDS011;10388;52.314;7.938;2024-01-06T04:54:37;7.47;;;5.10;;
20458;SDS011;10388;52.314;7.938;2024-01-06T04:57:10;7.10;;;4.97;;
20458;SDS011;10388;52.314;7.938;2024-01-06T04:59:54;6.53;;;4.33;;
20458;SDS011;10388;52.314;7.938;2024-01-06T05:02:37;7.20;;;5.03;;
20458;SDS011;10388;52.314;7.938;2024-01-06T05:05:16;7.30;;;5.70;;
20458;SDS011;10388;52.314;7.938;2024-01-06T05:07:47;6.60;;;4.60;;
20458;SDS011;10388;52.314;7.938;2024-01-06T05:10:17;7.57;;;5.27;;
20458;SDS011;10388;52.314;7.938;2024-01-06T05:12:48;7.17;;;5.30;;
20458;SDS011;10388;52.314;7.938;2024-01-06T05:15:18;7.53;;;5.33;;
20458;SDS011;10388;52.314;7.938;2024-01-06T05:17:49;7.73;;;5.30;;
20458;SDS011;10388;52.314;7.938;2024-01-06T05:20:19;6.83;;;5.27;;
20458;SDS011;10388;52.314;7.938;2024-01-06T05:22:50;9.57;;;5.80;;
20458;SDS011;10388;52.314;7.938;2024-01-06T05:25:20;7.17;;;5.27;;
20458;SDS011;10388;52.314;7.938;2024-01-06T05:27:51;7.97;;;5.17;;
20458;SDS011;10388;52.314;7.938;2024-01-06T05:30:21;7.23;;;5.53;;
20458;SDS011;10388;52.314;7.938;2024-01-06T05:32:52;6.47;;;4.83;;
20458;SDS011;10388;52.314;7.938;2024-01-06T05:35:22;7.80;;;5.30;;
20458;SDS011;10388;52.314;7.938;2024-01-06T05:37:53;7.53;;;5.60;;
20458;SDS011;10388;52.314;7.938;2024-01-06T05:40:23;7.10;;;5.50;;
20458;SDS011;10388;52.314;7.938;2024-01-06T05:42:54;8.07;;;5.80;;
20458;SDS011;10388;52.314;7.938;2024-01-06T05:45:26;7.97;;;5.60;;
20458;SDS011;10388;52.314;7.938;2024-01-06T05:47:56;6.30;;;4.97;;
20458;SDS011;10388;52.314;7.938;2024-01-06T05:50:27;6.67;;;5.03;;
20458;SDS011;10388;52.314;7.938;2024-01-06T05:52:57;7.80;;;5.70;;
20458;SDS011;10388;52.314;7.938;2024-01-06T05:55:28;7.33;;;5.50;;
20458;SDS011;10388;52.314;7.938;2024-01-06T05:57:59;7.90;;;5.70;;
20458;SDS011;10388;52.314;7.938;2024-01-06T06:00:30;8.03;;;5.77;;
20458;SDS011;10388;52.314;7.938;2024-01-06T06:03:01;9.13;;;6.07;;
20458;SDS011;10388;52.314;7.938;2024-01-06T06:05:32;7.40;;;5.40;;
20458;SDS011;10388;52.314;7.938;2024-01-06T06:08:02;8.43;;;5.50;;
20458;SDS011;10388;52.314;7.938;2024-01-06T06:10:33;6.63;;;5.80;;
20458;SDS011;10388;52.314;7.938;2024-01-06T06:13:10;8.20;;;5.63;;
20458;SDS011;10388;52.314;7.938;2024-01-06T06:15:41;8.23;;;5.30;;
20458;SDS011;10388;52.314;7.938;2024-01-06T06:18:12;7.20;;;5.40;;
20458;SDS011;10388;52.314;7.938;2024-01-06T06:20:42;6.90;;;5.53;;
20458;SDS011;10388;52.314;7.938;2024-01-06T06:23:13;6.20;;;4.93;;
20458;SDS011;10388;52.314;7.938;2024-01-06T06:25:44;6.77;;;5.20;;
20458;SDS011;10388;52.314;7.938;2024-01-06T06:28:14;5.80;;;4.50;;
20458;SDS011;10388;52.314;7.938;2024-01-06T06:30:45;6.77;;;5.20;;
20458;SDS011;10388;52.314;7.938;2024-01-06T06:33:15;6.90;;;4.83;;
20458;SDS011;10388;52.314;7.938;2024-01-06T06:35:47;6.03;;;4.40;;
20458;SDS011;10388;52.314;7.938;2024-01-06T06:38:17;6.40;;;4.77;;
20458;SDS011;10388;52.314;7.938;2024-01-06T06:40:48;6.90;;;5.20;;
20458;SDS011;10388;52.314;7.938;2024-01-06T06:43:18;6.23;;;5.03;;
20458;SDS011;10388;52.314;7.938;2024-01-06T06:45:49;9.50;;;5.97;;
20458;SDS011;10388;52.314;7.938;2024-01-06T06:48:19;6.27;;;4.83;;
20458;SDS011;10388;52.314;7.938;2024-01-06T06:50:50;7.47;;;5.17;;
20458;SDS011;10388;52.314;7.938;2024-01-06T06:53:20;7.47;;;5.40;;
20458;SDS011;10388;52.314;7.938;2024-01-06T06:55:51;7.33;;;4.87;;
20458;SDS011;10388;52.314;7.938;2024-01-06T06:58:21;8.10;;;5.50;;
20458;SDS011;10388;52.314;7.938;2024-01-06T07:00:52;7.87;;;5.53;;
20458;SDS011;10388;52.314;7.938;2024-01-06T07:03:24;7.60;;;5.20;;
20458;SDS011;10388;52.314;7.938;2024-01-06T07:05:54;8.10;;;5.53;;
20458;SDS011;10388;52.314;7.938;2024-01-06T07:08:25;6.47;;;5.17;;
20458;SDS011;10388;52.314;7.938;2024-01-06T07:10:55;5.57;;;4.27;;
20458;SDS011;10388;52.314;7.938;2024-01-06T07:13:26;6.60;;;4.70;;
20458;SDS011;10388;52.314;7.938;2024-01-06T07:15:57;8.20;;;5.57;;
20458;SDS011;10388;52.314;7.938;2024-01-06T07:18:27;7.50;;;5.20;;
20458;SDS011;10388;52.314;7.938;2024-01-06T07:20:58;6.83;;;5.30;;
20458;SDS011;10388;52.314;7.938;2024-01-06T07:23:28;6.77;;;4.73;;
20458;SDS011;10388;52.314;7.938;2024-01-06T07:25:59;7.10;;;5.27;;
20458;SDS011;10388;52.314;7.938;2024-01-06T07:28:29;6.43;;;5.00;;
20458;SDS011;10388;52.314;7.938;2024-01-06T07:31:00;7.87;;;4.80;;
20458;SDS011;10388;52.314;7.938;2024-01-06T07:33:31;5.33;;;3.80;;
20458;SDS011;10388;52.314;7.938;2024-01-06T07:36:01;7.37;;;4.40;;
20458;SDS011;10388;52.314;7.938;2024-01-06T07:38:32;9.20;;;5.73;;
20458;SDS011;10388;52.314;7.938;2024-01-06T07:41:02;7.73;;;4.30;;
20458;SDS011;10388;52.314;7.938;2024-01-06T07:43:34;6.47;;;4.03;;
20458;SDS011;10388;52.314;7.938;2024-01-06T07:46:05;6.10;;;4.63;;
20458;SDS011;10388;52.314;7.938;2024-01-06T07:48:37;5.47;;;3.80;;
20458;SDS011;10388;52.314;7.938;2024-01-06T07:51:07;5.73;;;4.27;;
20458;SDS011;10388;52.314;7.938;2024-01-06T07:53:38;7.03;;;4.20;;
20458;SDS011;10388;52.314;7.938;2024-01-06T07:56:08;5.40;;;3.90;;
20458;SDS011;10388;52.314;7.938;2024-01-06T07:58:39;6.47;;;4.57;;
20458;SDS011;10388;52.314;7.938;2024-01-06T08:01:09;6.03;;;4.47;;
20458;SDS011;10388;52.314;7.938;2024-01-06T08:03:40;5.43;;;4.17;;
20458;SDS011;10388;52.314;7.938;2024-01-06T08:06:10;5.90;;;4.57;;
20458;SDS011;10388;52.314;7.938;2024-01-06T08:08:41;5.23;;;4.30;;
20458;SDS011;10388;52.314;7.938;2024-01-06T08:11:11;5.83;;;4.53;;
20458;SDS011;10388;52.314;7.938;2024-01-06T08:13:42;7.10;;;5.03;;
20458;SDS011;10388;52.314;7.938;2024-01-06T08:16:13;6.67;;;5.00;;
20458;SDS011;10388;52.314;7.938;2024-01-06T08:18:44;8.13;;;5.27;;
20458;SDS011;10388;52.314;7.938;2024-01-06T08:21:15;8.43;;;5.93;;
20458;SDS011;10388;52.314;7.938;2024-01-06T08:23:45;8.03;;;5.60;;
20458;SDS011;10388;52.314;7.938;2024-01-06T08:26:16;8.27;;;5.90;;
20458;SDS011;10388;52.314;7.938;2024-01-06T08:28:47;8.87;;;5.97;;
20458;SDS011;10388;52.314;7.938;2024-01-06T08:31:18;8.57;;;6.40;;
20458;SDS011;10388;52.314;7.938;2024-01-06T08:33:48;9.30;;;6.87;;
20458;SDS011;10388;52.314;7.938;2024-01-06T08:36:19;9.03;;;6.17;;
20458;SDS011;10388;52.314;7.938;2024-01-06T08:38:50;9.50;;;6.23;;
20458;SDS011;10388;52.314;7.938;2024-01-06T08:41:21;9.90;;;7.47;;
20458;SDS011;10388;52.314;7.938;2024-01-06T08:43:51;10.33;;;7.53;;
20458;SDS011;10388;52.314;7.938;2024-01-06T08:46:22;9.73;;;6.53;;
20458;SDS011;10388;52.314;7.938;2024-01-06T08:48:52;10.53;;;6.83;;
20458;SDS011;10388;52.314;7.938;2024-01-06T08:51:23;9.47;;;6.67;;
20458;SDS011;10388;52.314;7.938;2024-01-06T08:53:54;11.57;;;7.70;;
20458;SDS011;10388;52.314;7.938;2024-01-06T08:56:25;13.77;;;10.07;;
20458;SDS011;10388;52.314;7.938;2024-01-06T08:58:56;10.93;;;8.33;;
20458;SDS011;10388;52.314;7.938;2024-01-06T09:01:27;11.20;;;7.47;;
20458;SDS011;10388;52.314;7.938;2024-01-06T09:03:57;9.60;;;6.70;;
20458;SDS011;10388;52.314;7.938;2024-01-06T09:06:28;9.73;;;6.97;;
20458;SDS011;10388;52.314;7.938;2024-01-06T09:08:58;11.63;;;7.83;;
20458;SDS011;10388;52.314;7.938;2024-01-06T09:11:29;9.70;;;7.17;;
20458;SDS011;10388;52.314;7.938;2024-01-06T09:13:59;9.90;;;6.77;;
20458;SDS011;10388;52.314;7.938;2024-01-06T09:16:30;7.87;;;6.03;;
20458;SDS011;10388;52.314;7.938;2024-01-06T09:19:01;13.07;;;6.57;;
20458;SDS011;10388;52.314;7.938;2024-01-06T09:21:31;10.50;;;5.73;;
20458;SDS011;10388;52.314;7.938;2024-01-06T09:24:02;8.90;;;5.77;;
20458;SDS011;10388;52.314;7.938;2024-01-06T09:26:36;9.27;;;5.77;;
20458;SDS011;10388;52.314;7.938;2024-01-06T09:29:06;7.03;;;5.27;;
20458;SDS011;10388;52.314;7.938;2024-01-06T09:31:37;9.97;;;6.13;;
20458;SDS011;10388;52.314;7.938;2024-01-06T09:34:08;9.97;;;5.23;;
20458;SDS011;10388;52.314;7.938;2024-01-06T09:36:40;9.73;;;6.37;;
20458;SDS011;10388;52.314;7.938;2024-01-06T09:39:10;8.50;;;5.47;;
20458;SDS011;10388;52.314;7.938;2024-01-06T09:41:41;7.43;;;5.30;;
20458;SDS011;10388;52.314;7.938;2024-01-06T09:44:11;7.93;;;5.53;;
20458;SDS011;10388;52.314;7.938;2024-01-06T09:46:42;8.03;;;5.70;;
20458;SDS011;10388;52.314;7.938;2024-01-06T09:49:13;10.43;;;5.63;;
20458;SDS011;10388;52.314;7.938;2024-01-06T09:51:45;7.93;;;5.50;;
20458;SDS011;10388;52.314;7.938;2024-01-06T09:54:22;9.17;;;5.57;;
20458;SDS011;10388;52.314;7.938;2024-01-06T09:56:56;8.43;;;5.70;;
20458;SDS011;10388;52.314;7.938;2024-01-06T09:59:29;7.90;;;5.97;;
20458;SDS011;10388;52.314;7.938;2024-01-06T10:02:04;9.20;;;5.90;;
20458;SDS011;10388;52.314;7.938;2024-01-06T10:04:35;10.97;;;6.80;;
20458;SDS011;10388;52.314;7.938;2024-01-06T10:07:05;12.10;;;7.20;;
20458;SDS011;10388;52.314;7.938;2024-01-06T10:09:36;12.40;;;6.40;;
20458;SDS011;10388;52.314;7.938;2024-01-06T10:12:07;8.37;;;5.50;;
20458;SDS011;10388;52.314;7.938;2024-01-06T10:14:40;10.23;;;6.03;;
20458;SDS011;10388;52.314;7.938;2024-01-06T10:17:11;7.93;;;5.67;;
20458;SDS011;10388;52.314;7.938;2024-01-06T10:19:44;7.70;;;5.77;;
20458;SDS011;10388;52.314;7.938;2024-01-06T10:22:15;7.90;;;5.57;;
20458;SDS011;10388;52.314;7.938;2024-01-06T10:24:46;8.63;;;5.83;;
20458;SDS011;10388;52.314;7.938;2024-01-06T10:27:17;7.87;;;4.80;;
20458;SDS011;10388;52.314;7.938;2024-01-06T10:29:48;7.60;;;5.27;;
20458;SDS011;10388;52.314;7.938;2024-01-06T10:32:18;6.97;;;4.50;;
20458;SDS011;10388;52.314;7.938;2024-01-06T10:34:49;7.67;;;5.23;;
20458;SDS011;10388;52.314;7.938;2024-01-06T10:37:19;7.93;;;5.20;;
20458;SDS011;10388;52.314;7.938;2024-01-06T10:42:41;9.27;;;5.40;;
20458;SDS011;10388;52.314;7.938;2024-01-06T10:45:13;14.80;;;5.57;;
20458;SDS011;10388;52.314;7.938;2024-01-06T10:47:44;10.40;;;6.37;;
20458;SDS011;10388;52.314;7.938;2024-01-06T10:50:18;9.87;;;6.87;;
20458;SDS011;10388;52.314;7.938;2024-01-06T10:52:51;10.67;;;6.70;;
20458;SDS011;10388;52.314;7.938;2024-01-06T10:55:23;9.50;;;6.33;;
20458;SDS011;10388;52.314;7.938;2024-01-06T10:57:55;7.93;;;5.97;;
20458;SDS011;10388;52.314;7.938;2024-01-06T11:00:27;9.90;;;6.73;;
20458;SDS011;10388;52.314;7.938;2024-01-06T11:02:58;10.73;;;6.70;;
20458;SDS011;10388;52.314;7.938;2024-01-06T11:05:29;10.03;;;6.63;;
20458;SDS011;10388;52.314;7.938;2024-01-06T11:08:00;8.97;;;6.33;;
20458;SDS011;10388;52.314;7.938;2024-01-06T11:10:31;13.77;;;8.67;;
20458;SDS011;10388;52.314;7.938;2024-01-06T11:13:11;15.93;;;12.07;;
20458;SDS011;10388;52.314;7.938;2024-01-06T11:15:44;11.93;;;8.27;;
20458;SDS011;10388;52.314;7.938;2024-01-06T11:18:33;9.30;;;6.90;;
20458;SDS011;10388;52.314;7.938;2024-01-06T11:23:45;9.53;;;6.80;;
20458;SDS011;10388;52.314;7.938;2024-01-06T11:26:17;9.03;;;6.30;;
20458;SDS011;10388;52.314;7.938;2024-01-06T11:28:48;11.07;;;7.13;;
20458;SDS011;10388;52.314;7.938;2024-01-06T11:31:22;9.67;;;6.53;;
20458;SDS011;10388;52.314;7.938;2024-01-06T11:33:53;10.47;;;7.00;;
20458;SDS011;10388;52.314;7.938;2024-01-06T11:36:24;9.87;;;6.43;;
20458;SDS011;10388;52.314;7.938;2024-01-06T11:38:55;9.13;;;6.63;;
20458;SDS011;10388;52.314;7.938;2024-01-06T11:41:47;10.10;;;7.00;;
20458;SDS011;10388;52.314;7.938;2024-01-06T11:44:22;8.37;;;5.77;;
20458;SDS011;10388;52.314;7.938;2024-01-06T11:46:54;9.63;;;6.60;;
20458;SDS011;10388;52.314;7.938;2024-01-06T11:49:26;10.17;;;7.33;;
20458;SDS011;10388;52.314;7.938;2024-01-06T11:51:58;11.87;;;7.03;;
20458;SDS011;10388;52.314;7.938;2024-01-06T11:54:30;9.30;;;7.13;;
20458;SDS011;10388;52.314;7.938;2024-01-06T11:57:01;10.83;;;7.20;;
20458;SDS011;10388;52.314;7.938;2024-01-06T11:59:31;8.60;;;6.67;;
20458;SDS011;10388;52.314;7.938;2024-01-06T12:02:02;8.97;;;7.10;;
20458;SDS011;10388;52.314;7.938;2024-01-06T12:04:33;9.77;;;6.37;;
20458;SDS011;10388;52.314;7.938;2024-01-06T12:07:07;8.57;;;6.90;;
20458;SDS011;10388;52.314;7.938;2024-01-06T12:09:38;9.83;;;6.87;;
20458;SDS011;10388;52.314;7.938;2024-01-06T12:12:09;15.80;;;8.63;;
20458;SDS011;10388;52.314;7.938;2024-01-06T12:14:40;8.97;;;6.70;;
20458;SDS011;10388;52.314;7.938;2024-01-06T12:17:12;8.93;;;6.10;;
20458;SDS011;10388;52.314;7.938;2024-01-06T12:19:44;8.87;;;6.17;;
20458;SDS011;10388;52.314;7.938;2024-01-06T12:22:16;7.17;;;5.43;;
20458;SDS011;10388;52.314;7.938;2024-01-06T12:24:49;10.17;;;5.97;;
20458;SDS011;10388;52.314;7.938;2024-01-06T12:27:20;7.50;;;5.43;;
20458;SDS011;10388;52.314;7.938;2024-01-06T12:29:52;8.20;;;6.10;;
20458;SDS011;10388;52.314;7.938;2024-01-06T12:32:23;8.03;;;5.57;;
20458;SDS011;10388;52.314;7.938;2024-01-06T12:34:55;7.67;;;5.63;;
20458;SDS011;10388;52.314;7.938;2024-01-06T12:37:26;8.87;;;6.33;;
20458;SDS011;10388;52.314;7.938;2024-01-06T12:39:57;8.40;;;6.00;;
20458;SDS011;10388;52.314;7.938;2024-01-06T12:42:28;8.30;;;5.87;;
20458;SDS011;10388;52.314;7.938;2024-01-06T12:44:58;7.53;;;5.70;;
20458;SDS011;10388;52.314;7.938;2024-01-06T12:47:29;8.17;;;5.93;;
20458;SDS011;10388;52.314;7.938;2024-01-06T12:49:59;7.63;;;5.40;;
20458;SDS011;10388;52.314;7.938;2024-01-06T12:52:30;8.40;;;5.57;;
20458;SDS011;10388;52.314;7.938;2024-01-06T12:55:01;10.37;;;6.63;;
20458;SDS011;10388;52.314;7.938;2024-01-06T12:57:33;14.60;;;10.57;;
20458;SDS011;10388;52.314;7.938;2024-01-06T13:00:04;11.97;;;8.27;;
20458;SDS011;10388;52.314;7.938;2024-01-06T13:02:38;10.20;;;7.77;;
20458;SDS011;10388;52.314;7.938;2024-01-06T13:05:09;10.00;;;6.80;;
20458;SDS011;10388;52.314;7.938;2024-01-06T13:07:39;7.50;;;5.97;;
20458;SDS011;10388;52.314;7.938;2024-01-06T13:10:10;7.90;;;5.90;;
20458;SDS011;10388;52.314;7.938;2024-01-06T13:12:41;8.40;;;5.20;;
20458;SDS011;10388;52.314;7.938;2024-01-06T13:15:11;10.30;;;5.50;;
20458;SDS011;10388;52.314;7.938;2024-01-06T13:17:42;7.43;;;5.40;;
20458;SDS011;10388;52.314;7.938;2024-01-06T13:20:12;8.37;;;6.00;;
20458;SDS011;10388;52.314;7.938;2024-01-06T13:22:46;7.50;;;5.83;;
20458;SDS011;10388;52.314;7.938;2024-01-06T13:25:17;7.67;;;6.10;;
20458;SDS011;10388;52.314;7.938;2024-01-06T13:27:49;7.73;;;5.80;;
20458;SDS011;10388;52.314;7.938;2024-01-06T13:30:21;10.47;;;6.40;;
20458;SDS011;10388;52.314;7.938;2024-01-06T13:32:52;8.47;;;6.23;;
20458;SDS011;10388;52.314;7.938;2024-01-06T13:35:24;11.10;;;6.93;;
20458;SDS011;10388;52.314;7.938;2024-01-06T13:37:55;13.70;;;6.63;;
20458;SDS011;10388;52.314;7.938;2024-01-06T13:40:26;9.50;;;6.73;;
20458;SDS011;10388;52.314;7.938;2024-01-06T13:42:57;9.40;;;6.63;;
20458;SDS011;10388;52.314;7.938;2024-01-06T13:45:28;11.83;;;7.17;;
20458;SDS011;10388;52.314;7.938;2024-01-06T13:48:00;12.60;;;7.13;;
20458;SDS011;10388;52.314;7.938;2024-01-06T13:50:30;9.57;;;6.60;;
20458;SDS011;10388;52.314;7.938;2024-01-06T13:53:01;8.37;;;6.70;;
20458;SDS011;10388;52.314;7.938;2024-01-06T13:55:33;7.33;;;5.67;;
20458;SDS011;10388;52.314;7.938;2024-01-06T13:58:04;8.40;;;6.17;;
20458;SDS011;10388;52.314;7.938;2024-01-06T14:00:34;10.13;;;5.67;;
20458;SDS011;10388;52.314;7.938;2024-01-06T14:03:05;7.43;;;5.50;;
20458;SDS011;10388;52.314;7.938;2024-01-06T14:05:39;9.53;;;6.77;;
20458;SDS011;10388;52.314;7.938;2024-01-06T14:08:10;15.87;;;7.30;;
20458;SDS011;10388;52.314;7.938;2024-01-06T14:10:40;11.27;;;6.87;;
20458;SDS011;10388;52.314;7.938;2024-01-06T14:13:14;9.70;;;6.60;;
20458;SDS011;10388;52.314;7.938;2024-01-06T14:15:44;9.27;;;6.90;;
20458;SDS011;10388;52.314;7.938;2024-01-06T14:18:15;9.30;;;6.60;;
20458;SDS011;10388;52.314;7.938;2024-01-06T14:20:46;8.87;;;6.57;;
20458;SDS011;10388;52.314;7.938;2024-01-06T14:23:18;7.77;;;6.27;;
20458;SDS011;10388;52.314;7.938;2024-01-06T14:25:50;12.07;;;6.20;;
20458;SDS011;10388;52.314;7.938;2024-01-06T14:28:20;11.77;;;5.90;;
20458;SDS011;10388;52.314;7.938;2024-01-06T14:30:51;6.63;;;5.60;;
20458;SDS011;10388;52.314;7.938;2024-01-06T14:33:22;12.47;;;5.93;;
20458;SDS011;10388;52.314;7.938;2024-01-06T14:35:52;8.57;;;6.53;;
20458;SDS011;10388;52.314;7.938;2024-01-06T14:38:23;7.93;;;5.57;;
20458;SDS011;10388;52.314;7.938;2024-01-06T14:40:53;10.50;;;6.82;;
20458;SDS011;10388;52.314;7.938;2024-01-06T14:43:24;9.67;;;6.53;;
20458;SDS011;10388;52.314;7.938;2024-01-06T14:45:54;12.90;;;6.60;;
20458;SDS011;10388;52.314;7.938;2024-01-06T14:48:26;11.00;;;7.30;;
20458;SDS011;10388;52.314;7.938;2024-01-06T14:50:56;9.67;;;7.43;;
20458;SDS011;10388;52.314;7.938;2024-01-06T14:53:27;10.43;;;7.67;;
20458;SDS011;10388;52.314;7.938;2024-01-06T14:55:57;10.87;;;6.57;;
20458;SDS011;10388;52.314;7.938;2024-01-06T14:58:28;6.77;;;5.20;;
20458;SDS011;10388;52.314;7.938;2024-01-06T15:00:59;8.13;;;6.40;;
20458;SDS011;10388;52.314;7.938;2024-01-06T15:03:29;9.37;;;6.03;;
20458;SDS011;10388;52.314;7.938;2024-01-06T15:06:00;11.30;;;5.97;;
20458;SDS011;10388;52.314;7.938;2024-01-06T15:08:30;9.30;;;6.20;;
20458;SDS011;10388;52.314;7.938;2024-01-06T15:11:01;9.93;;;6.23;;
20458;SDS011;10388;52.314;7.938;2024-01-06T15:13:33;7.97;;;6.80;;
20458;SDS011;10388;52.314;7.938;2024-01-06T15:16:03;13.33;;;8.37;;
20458;SDS011;10388;52.314;7.938;2024-01-06T15:18:34;6.90;;;5.33;;
20458;SDS011;10388;52.314;7.938;2024-01-06T15:21:06;12.57;;;7.43;;
20458;SDS011;10388;52.314;7.938;2024-01-06T15:23:36;7.03;;;5.40;;
20458;SDS011;10388;52.314;7.938;2024-01-06T15:26:06;10.63;;;6.47;;
20458;SDS011;10388;52.314;7.938;2024-01-06T15:28:37;11.23;;;6.80;;
20458;SDS011;10388;52.314;7.938;2024-01-06T15:31:07;17.30;;;10.37;;
20458;SDS011;10388;52.314;7.938;2024-01-06T15:33:38;14.53;;;9.70;;
20458;SDS011;10388;52.314;7.938;2024-01-06T15:36:12;11.47;;;8.43;;
20458;SDS011;10388;52.314;7.938;2024-01-06T15:38:42;7.60;;;6.43;;
20458;SDS011;10388;52.314;7.938;2024-01-06T15:41:13;10.73;;;7.00;;
20458;SDS011;10388;52.314;7.938;2024-01-06T15:43:44;9.47;;;7.73;;